Vernal Regional Airport
KVEL : now visible

Airfield :











YOU CAN JOIN US ON...

 
LOGIN :

Register | Disclaimer

   EN    FR    IT 

 









Legend :    VFR   Marginal VFR   IFR   Intensive IFR   Very Intensive IFR
Visi :
Ceiling :
>= 8 km
>= 3000ft
5 to 8 km
1000 to 3000 ft
1500m to 5 km
500 to 1000 ft
800 to 1500m
200 to 500 ft
< 800m
< 200 ft
Symbols :   Thunderstorms  Fog  Heavy snow  Heavy precipitations  Wind > 20 kt






- Airport Elevation : 5278 ft


KVEL - Vernal Regional

CURRENT METAR :
  • 150653Z AUTO 20006KT 10SM CLR M08/M11 A2985 RMK AO2 SLP139 T10781111 400221078

EXPIRED METARs :
  • 150553Z AUTO 02005KT 10SM CLR M04/M11 A2984 RMK AO2 SLP127 T10391106 10006 21039 51008
  • 150453Z AUTO 06006KT 10SM CLR M03/M10 A2983 RMK AO2 SLP124 T10281100

TAF KVEL
Valid from the 15 at 06:00 until the 16 at 06:00 UTC


150520Z 1506/1606 VRB04KT P6SM FEW080 FEW250
FM151200 VRB03KT P6SM FEW080 SCT200
FM160000 VRB03KT P6SM FEW050 SCT180



MET'MAP, your aeronautical weather chart ! - Copyright ORBIFLY December 2007 - Disclaimer

ORBIFLY MET'MAP TEAM :

Programming & Development : Alexandra Zaïnal
Concept & original design : Baudouin d'Aumeries
Assistance for programming : Marc-Olivier Méhu
Technical & hardware support : Manuel Goepfert

Contact : metmap@orbifly.com




SOURCES & CREDITS :

   NOAA       Earth
Advisory